Terminal Aerodrome Forecast
Issued by NWS

Home | Current Version | Previous Version | Text Only | Print | Product List | Glossary On
Versions: 1 2 3 4 5 6 7 8 9 10 11 12 13 14 15 16 17 18
000
FTUS43 KGRR 252352
TAFMKG
TAF
KMKG 252352Z 2600/2624 20012KT P6SM BKN140
     FM260800 19011KT 6SM BR SCT015 BKN200
     FM261100 19011KT 5SM BR BKN015
     FM261700 19010KT P6SM BKN035
     FM262100 18009KT P6SM VCTS BKN040CB=

USA.gov is the U.S. government's official web portal to all federal, state and local government web resources and services.